Time;durP1;ratioP1;P1;durP2;ratioP2;P2;SDS_P1;SDS_P2;PMS_P1;PMS_P2;Temp;Humidity;BMP_temperature;BMP_pressure;BME280_temperature;BME280_humidity;BME280_pressure;Samples;Min_cycle;Max_cycle;Signal;HPM_P1;HPM_P2
2022/04/03 00:01:21;;;;;;;71.10;12.93;;;;;;;;;;5093583;28;20667;-72
2022/04/03 00:03:48;;;;;;;65.65;10.50;;;;;;;;;;5093751;28;20287;-72
2022/04/03 00:06:15;;;;;;;69.70;12.23;;;;;;;;;;5093460;28;20300;-71
2022/04/03 00:08:43;;;;;;;71.18;12.57;;;;;;;;;;5092639;28;20220;-72
2022/04/03 00:11:11;;;;;;;69.75;12.88;;;;;;;;;;5085656;28;20603;-72
2022/04/03 00:13:38;;;;;;;67.95;11.55;;;;;;;;;;5073004;28;20738;-71
2022/04/03 00:16:05;;;;;;;69.75;12.68;;;;;;;;;;5073184;28;20210;-71
2022/04/03 00:18:33;;;;;;;71.00;12.50;;;;;;;;;;5072361;28;20713;-72
2022/04/03 00:21:00;;;;;;;71.28;11.27;;;;;;;;;;5072956;28;20204;-71
2022/04/03 00:23:27;;;;;;;71.90;11.90;;;;;;;;;;5073408;28;20209;-72
2022/04/03 00:25:56;;;;;;;72.55;13.02;;;;;;;;;;5072933;28;20232;-72
2022/04/03 00:28:26;;;;;;;70.32;11.60;;;;;;;;;;5072088;28;20221;-72
2022/04/03 00:30:53;;;;;;;71.10;12.68;;;;;;;;;;5073031;28;20213;-72
2022/04/03 00:33:20;;;;;;;69.70;11.25;;;;;;;;;;5072965;28;20581;-71
2022/04/03 00:35:48;;;;;;;78.10;13.43;;;;;;;;;;5072671;28;20209;-71
2022/04/03 00:38:15;;;;;;;70.20;12.90;;;;;;;;;;5071789;28;20229;-72
2022/04/03 00:40:42;;;;;;;71.40;12.90;;;;;;;;;;5072655;28;20299;-72
2022/04/03 00:43:11;;;;;;;71.30;13.15;;;;;;;;;;5073814;28;20227;-72
2022/04/03 00:45:39;;;;;;;69.35;12.38;;;;;;;;;;5092816;28;20623;-71
2022/04/03 00:48:07;;;;;;;71.55;14.63;;;;;;;;;;5092625;28;20316;-71
2022/04/03 00:50:34;;;;;;;70.35;13.50;;;;;;;;;;5092630;28;20619;-70
2022/04/03 00:53:01;;;;;;;71.30;13.27;;;;;;;;;;5092327;28;20214;-72
2022/04/03 00:55:28;;;;;;;73.35;14.10;;;;;;;;;;5092423;28;20295;-71
2022/04/03 00:57:56;;;;;;;71.05;12.23;;;;;;;;;;5091805;28;20224;-72
2022/04/03 01:00:24;;;;;;;70.57;12.75;;;;;;;;;;5092114;28;20294;-71
2022/04/03 01:02:51;;;;;;;71.13;11.80;;;;;;;;;;5092470;28;20206;-71
2022/04/03 01:05:18;;;;;;;73.65;13.38;;;;;;;;;;5092122;28;20211;-71
2022/04/03 01:07:46;;;;;;;74.85;14.15;;;;;;;;;;5091920;28;20250;-71
2022/04/03 01:10:13;;;;;;;73.03;14.70;;;;;;;;;;5091989;28;20290;-71
2022/04/03 01:12:41;;;;;;;76.25;13.40;;;;;;;;;;5092133;28;20318;-72
2022/04/03 01:15:08;;;;;;;71.72;14.15;;;;;;;;;;5086664;28;20216;-72
2022/04/03 01:17:37;;;;;;;72.47;14.50;;;;;;;;;;5071681;28;20269;-72
2022/04/03 01:20:04;;;;;;;73.90;14.18;;;;;;;;;;5072189;28;20555;-72
2022/04/03 01:22:31;;;;;;;73.35;12.38;;;;;;;;;;5072030;28;20201;-72
2022/04/03 01:25:00;;;;;;;70.07;13.18;;;;;;;;;;5071995;28;20639;-72
2022/04/03 01:27:27;;;;;;;72.55;14.30;;;;;;;;;;5071553;28;20235;-71
2022/04/03 01:29:54;;;;;;;73.07;12.20;;;;;;;;;;5071948;28;20578;-72
2022/04/03 01:32:22;;;;;;;73.50;13.82;;;;;;;;;;5071177;28;20315;-71
2022/04/03 01:34:49;;;;;;;72.25;13.77;;;;;;;;;;5072066;28;20643;-71
2022/04/03 01:37:16;;;;;;;73.88;13.40;;;;;;;;;;5070986;28;20316;-71
2022/04/03 01:39:43;;;;;;;71.72;13.10;;;;;;;;;;5071712;28;20219;-72
2022/04/03 01:42:12;;;;;;;77.55;15.48;;;;;;;;;;5071795;28;20207;-72
2022/04/03 01:44:39;;;;;;;94.32;24.63;;;;;;;;;;5071442;28;20215;-72
2022/04/03 01:47:06;;;;;;;81.38;16.52;;;;;;;;;;5068579;28;20320;-71
2022/04/03 01:49:33;;;;;;;74.75;15.80;;;;;;;;;;5071160;28;20300;-72
2022/04/03 01:52:00;;;;;;;73.47;14.93;;;;;;;;;;5071254;28;20712;-72
2022/04/03 01:54:27;;;;;;;76.47;16.05;;;;;;;;;;5071658;28;20284;-72
2022/04/03 01:56:55;;;;;;;74.32;14.90;;;;;;;;;;5071424;28;20228;-72
2022/04/03 01:59:24;;;;;;;75.40;16.90;;;;;;;;;;5073301;28;20574;-72
2022/04/03 02:01:51;;;;;;;71.60;14.27;;;;;;;;;;5091911;28;20247;-71
2022/04/03 02:04:18;;;;;;;76.05;15.32;;;;;;;;;;5091608;28;20212;-70
2022/04/03 02:06:45;;;;;;;75.53;15.70;;;;;;;;;;5091695;28;20577;-72
2022/04/03 02:09:13;;;;;;;72.63;14.18;;;;;;;;;;5090706;28;20203;-71
2022/04/03 02:11:40;;;;;;;73.75;15.40;;;;;;;;;;5093916;28;20228;-69
2022/04/03 02:14:07;;;;;;;72.57;14.25;;;;;;;;;;5095305;28;20216;-71
2022/04/03 02:16:36;;;;;;;76.90;15.90;;;;;;;;;;5095579;28;20200;-70
2022/04/03 02:19:03;;;;;;;74.40;16.30;;;;;;;;;;5087078;28;20227;-71
2022/04/03 02:21:31;;;;;;;85.32;18.60;;;;;;;;;;5075402;28;20303;-71
2022/04/03 02:23:58;;;;;;;80.18;18.52;;;;;;;;;;5075088;28;20582;-71
2022/04/03 02:26:25;;;;;;;79.70;17.08;;;;;;;;;;5075100;28;20201;-71
2022/04/03 02:28:52;;;;;;;76.05;16.00;;;;;;;;;;5074330;28;20228;-71
2022/04/03 02:31:20;;;;;;;76.03;14.05;;;;;;;;;;5075134;28;20274;-71
2022/04/03 02:33:48;;;;;;;75.88;14.10;;;;;;;;;;5075334;28;20212;-71
2022/04/03 02:36:15;;;;;;;74.43;14.48;;;;;;;;;;5074795;28;20207;-71
2022/04/03 02:38:43;;;;;;;74.45;15.60;;;;;;;;;;5074393;28;20225;-71
2022/04/03 02:41:11;;;;;;;77.85;15.63;;;;;;;;;;5075271;28;20237;-71
2022/04/03 02:43:38;;;;;;;75.40;14.48;;;;;;;;;;5075054;28;20674;-72
2022/04/03 02:46:05;;;;;;;74.20;16.42;;;;;;;;;;5074930;28;20216;-72
2022/04/03 02:48:33;;;;;;;72.82;15.13;;;;;;;;;;5073988;28;20228;-72
2022/04/03 02:51:01;;;;;;;76.40;16.27;;;;;;;;;;5072267;28;20301;-71
2022/04/03 02:53:28;;;;;;;77.55;16.17;;;;;;;;;;5074441;28;20228;-72
2022/04/03 02:55:56;;;;;;;73.65;15.57;;;;;;;;;;5074598;28;20299;-71
2022/04/03 02:58:23;;;;;;;75.20;14.80;;;;;;;;;;5073939;28;20225;-72
2022/04/03 03:00:50;;;;;;;77.60;17.45;;;;;;;;;;5074698;28;20209;-72
2022/04/03 03:03:17;;;;;;;73.07;14.63;;;;;;;;;;5074373;28;20201;-71
2022/04/03 03:05:45;;;;;;;74.88;14.38;;;;;;;;;;5074834;28;20201;-72
2022/04/03 03:08:14;;;;;;;70.18;13.02;;;;;;;;;;5074098;28;20595;-71
2022/04/03 03:10:41;;;;;;;76.13;15.48;;;;;;;;;;5074881;28;20288;-71
2022/04/03 03:13:08;;;;;;;71.85;12.88;;;;;;;;;;5074105;28;20336;-72
2022/04/03 03:15:35;;;;;;;75.75;13.88;;;;;;;;;;5074420;28;20201;-71
2022/04/03 03:18:03;;;;;;;71.28;13.25;;;;;;;;;;5073751;28;20312;-71
2022/04/03 03:20:31;;;;;;;73.15;14.27;;;;;;;;;;5074246;28;20244;-71
2022/04/03 03:22:59;;;;;;;76.05;15.05;;;;;;;;;;5075789;28;20203;-71
2022/04/03 03:25:27;;;;;;;76.30;14.93;;;;;;;;;;5094543;28;20208;-71
2022/04/03 03:27:54;;;;;;;71.43;13.15;;;;;;;;;;5093468;28;20316;-69
2022/04/03 03:30:21;;;;;;;73.45;15.02;;;;;;;;;;5094132;28;20291;-71
2022/04/03 03:32:49;;;;;;;74.30;14.52;;;;;;;;;;5094225;28;20220;-71
2022/04/03 03:35:16;;;;;;;74.15;14.57;;;;;;;;;;5094431;28;20214;-72
2022/04/03 03:37:44;;;;;;;74.00;16.08;;;;;;;;;;5093553;28;20224;-71
2022/04/03 03:40:14;;;;;;;74.15;14.57;;;;;;;;;;5094469;28;20295;-70
2022/04/03 03:42:43;;;;;;;80.20;16.90;;;;;;;;;;5095030;28;20200;-71
2022/04/03 03:45:11;;;;;;;74.18;15.80;;;;;;;;;;5096563;28;20641;-72
2022/04/03 03:47:38;;;;;;;75.68;15.35;;;;;;;;;;5093599;28;20220;-71
2022/04/03 03:50:06;;;;;;;77.07;17.00;;;;;;;;;;5093862;28;20241;-71
2022/04/03 03:52:33;;;;;;;75.18;16.15;;;;;;;;;;5093714;28;20790;-70
2022/04/03 03:55:00;;;;;;;83.07;15.68;;;;;;;;;;5090534;28;20731;-71
2022/04/03 03:57:27;;;;;;;75.85;15.60;;;;;;;;;;5093042;28;20274;-70
2022/04/03 03:59:56;;;;;;;78.47;14.88;;;;;;;;;;5094208;28;20240;-71
2022/04/03 04:02:23;;;;;;;74.95;15.07;;;;;;;;;;5094167;28;20208;-71
2022/04/03 04:04:50;;;;;;;74.78;14.63;;;;;;;;;;5094006;28;20200;-72
2022/04/03 04:07:17;;;;;;;77.63;14.55;;;;;;;;;;5092796;28;20348;-70
2022/04/03 04:09:44;;;;;;;72.93;15.23;;;;;;;;;;5093721;28;20638;-72
2022/04/03 04:12:12;;;;;;;75.28;16.33;;;;;;;;;;5097474;28;20224;-71
2022/04/03 04:14:39;;;;;;;73.70;14.95;;;;;;;;;;5093629;28;20246;-72
2022/04/03 04:17:09;;;;;;;74.38;14.88;;;;;;;;;;5093334;28;20724;-67
2022/04/03 04:19:36;;;;;;;75.28;14.23;;;;;;;;;;5093684;28;20600;-71
2022/04/03 04:22:04;;;;;;;74.35;13.65;;;;;;;;;;5093711;28;20300;-72
2022/04/03 04:24:32;;;;;;;74.95;14.57;;;;;;;;;;5093164;28;20724;-72
2022/04/03 04:26:59;;;;;;;76.30;13.85;;;;;;;;;;5082552;28;20278;-72
2022/04/03 04:29:26;;;;;;;78.10;15.73;;;;;;;;;;5072591;28;20213;-71
2022/04/03 04:31:53;;;;;;;77.18;14.45;;;;;;;;;;5073566;28;20211;-72
2022/04/03 04:34:22;;;;;;;75.70;15.20;;;;;;;;;;5075017;28;20220;-72
2022/04/03 04:36:49;;;;;;;73.25;14.63;;;;;;;;;;5072681;28;20204;-71
2022/04/03 04:39:16;;;;;;;74.65;13.85;;;;;;;;;;5072054;28;20212;-68
2022/04/03 04:41:43;;;;;;;72.65;13.75;;;;;;;;;;5072751;28;20300;-71
2022/04/03 04:44:11;;;;;;;72.93;14.20;;;;;;;;;;5072879;28;20296;-71
2022/04/03 04:46:38;;;;;;;75.22;15.60;;;;;;;;;;5072854;28;20247;-71
2022/04/03 04:49:05;;;;;;;74.05;14.13;;;;;;;;;;5071727;28;20213;-71
2022/04/03 04:51:33;;;;;;;76.43;17.17;;;;;;;;;;5072456;28;20211;-71
2022/04/03 04:54:01;;;;;;;75.80;15.85;;;;;;;;;;5072213;28;20319;-70
2022/04/03 04:56:28;;;;;;;71.22;13.50;;;;;;;;;;5072881;28;20292;-72
2022/04/03 04:58:55;;;;;;;72.38;14.27;;;;;;;;;;5076009;28;20220;-70
2022/04/03 05:01:22;;;;;;;71.10;13.60;;;;;;;;;;5092756;28;20208;-71
2022/04/03 05:03:49;;;;;;;75.80;15.52;;;;;;;;;;5092691;28;20641;-71
2022/04/03 05:06:16;;;;;;;81.00;15.52;;;;;;;;;;5092247;28;20200;-72
2022/04/03 05:08:45;;;;;;;72.47;14.63;;;;;;;;;;5091854;28;20597;-72
2022/04/03 05:11:13;;;;;;;73.93;14.00;;;;;;;;;;5092959;28;20295;-72
2022/04/03 05:13:42;;;;;;;75.97;14.20;;;;;;;;;;5092419;28;20269;-72
2022/04/03 05:16:09;;;;;;;75.00;13.75;;;;;;;;;;5092270;28;20204;-72
2022/04/03 05:18:36;;;;;;;75.60;13.55;;;;;;;;;;5091277;28;20717;-70
2022/04/03 05:21:04;;;;;;;73.30;14.20;;;;;;;;;;5092320;28;20204;-71
2022/04/03 05:23:31;;;;;;;74.10;13.65;;;;;;;;;;5092564;28;20302;-72
2022/04/03 05:26:00;;;;;;;73.68;13.80;;;;;;;;;;5092480;28;20583;-71
2022/04/03 05:28:27;;;;;;;75.00;12.93;;;;;;;;;;5091503;28;20263;-71
2022/04/03 05:30:54;;;;;;;70.97;12.32;;;;;;;;;;5088755;28;20204;-72
2022/04/03 05:33:22;;;;;;;71.72;13.70;;;;;;;;;;5091779;28;20220;-72
2022/04/03 05:35:50;;;;;;;73.38;14.10;;;;;;;;;;5091908;28;20472;-72
2022/04/03 05:38:17;;;;;;;71.65;12.93;;;;;;;;;;5091973;28;20319;-72
2022/04/03 05:40:44;;;;;;;73.85;13.10;;;;;;;;;;5093016;28;20204;-72
2022/04/03 05:43:13;;;;;;;71.57;14.23;;;;;;;;;;5093834;28;20200;-72
2022/04/03 05:45:40;;;;;;;75.07;13.90;;;;;;;;;;5092300;28;20201;-71
2022/04/03 05:48:07;;;;;;;71.28;13.30;;;;;;;;;;5090916;28;20235;-72
2022/04/03 05:50:37;;;;;;;73.57;13.20;;;;;;;;;;5091864;28;20218;-72
2022/04/03 05:53:04;;;;;;;70.60;12.80;;;;;;;;;;5091903;28;20314;-72
2022/04/03 05:55:31;;;;;;;72.30;12.75;;;;;;;;;;5091620;28;20208;-72
2022/04/03 05:57:58;;;;;;;72.63;14.77;;;;;;;;;;5091820;28;20591;-70
2022/04/03 06:00:27;;;;;;;72.22;13.25;;;;;;;;;;5091501;28;20306;-72
2022/04/03 06:02:55;;;;;;;70.95;12.88;;;;;;;;;;5074551;28;20251;-72
2022/04/03 06:05:23;;;;;;;73.05;12.98;;;;;;;;;;5071815;28;20689;-72
2022/04/03 06:07:50;;;;;;;72.53;13.30;;;;;;;;;;5070799;28;20309;-72
2022/04/03 06:10:18;;;;;;;72.20;13.27;;;;;;;;;;5071188;28;20231;-72
2022/04/03 06:12:56;;;;;;;69.93;12.30;;;;;;;;;;5071151;28;20750;-72
2022/04/03 06:15:23;;;;;;;70.28;12.55;;;;;;;;;;5071430;28;20296;-71
2022/04/03 06:17:52;;;;;;;75.35;13.40;;;;;;;;;;5070414;28;20231;-73
2022/04/03 06:20:19;;;;;;;74.55;12.38;;;;;;;;;;5071382;28;20201;-72
2022/04/03 06:22:47;;;;;;;71.43;11.90;;;;;;;;;;5071493;28;20291;-74
2022/04/03 06:25:15;;;;;;;74.47;13.18;;;;;;;;;;5071584;28;20291;-73
2022/04/03 06:27:42;;;;;;;68.93;12.30;;;;;;;;;;5070550;28;20229;-74
2022/04/03 06:30:10;;;;;;;67.63;11.15;;;;;;;;;;5071509;28;20232;-73
2022/04/03 06:32:37;;;;;;;73.65;12.02;;;;;;;;;;5071396;28;20292;-74
2022/04/03 06:35:06;;;;;;;69.65;11.40;;;;;;;;;;5086862;28;20338;-73
2022/04/03 06:37:33;;;;;;;70.03;11.57;;;;;;;;;;5090615;28;20243;-71
2022/04/03 06:40:01;;;;;;;68.97;11.80;;;;;;;;;;5091836;28;20295;-73
2022/04/03 06:42:29;;;;;;;67.88;11.10;;;;;;;;;;5091686;28;20207;-73
2022/04/03 06:44:56;;;;;;;64.97;9.13;;;;;;;;;;5091690;28;20204;-73
2022/04/03 06:47:23;;;;;;;68.68;9.27;;;;;;;;;;5090983;28;20323;-73
2022/04/03 06:49:51;;;;;;;65.75;8.90;;;;;;;;;;5091506;28;20545;-72
2022/04/03 06:52:19;;;;;;;67.60;9.30;;;;;;;;;;5091435;28;20585;-72
2022/04/03 06:54:46;;;;;;;66.45;8.25;;;;;;;;;;5091167;28;20256;-72
2022/04/03 06:57:14;;;;;;;65.97;8.57;;;;;;;;;;5091917;28;20312;-72
2022/04/03 06:59:42;;;;;;;65.57;8.35;;;;;;;;;;5094879;28;20208;-73
2022/04/03 07:02:09;;;;;;;63.03;7.70;;;;;;;;;;5094894;28;20222;-72
2022/04/03 07:04:36;;;;;;;71.32;8.23;;;;;;;;;;5093357;28;20200;-73
2022/04/03 07:07:03;;;;;;;67.35;8.80;;;;;;;;;;5094521;28;20227;-73
2022/04/03 07:09:32;;;;;;;66.82;7.65;;;;;;;;;;5094440;28;20219;-71
2022/04/03 07:11:59;;;;;;;64.95;7.18;;;;;;;;;;5094840;28;20212;-73
2022/04/03 07:14:27;;;;;;;68.05;7.68;;;;;;;;;;5094773;28;20463;-72
2022/04/03 07:16:54;;;;;;;63.13;7.90;;;;;;;;;;5094697;28;20315;-73
2022/04/03 07:19:21;;;;;;;64.40;8.25;;;;;;;;;;5093925;28;20623;-73
2022/04/03 07:21:50;;;;;;;63.83;7.78;;;;;;;;;;5091215;28;20205;-72
2022/04/03 07:24:17;;;;;;;64.50;7.50;;;;;;;;;;5094103;28;20196;-72
2022/04/03 07:26:46;;;;;;;64.72;6.93;;;;;;;;;;5091138;28;20208;-73
2022/04/03 07:29:13;;;;;;;63.28;7.07;;;;;;;;;;5093842;28;20675;-73
2022/04/03 07:31:41;;;;;;;64.40;7.05;;;;;;;;;;5094451;28;20204;-73
2022/04/03 07:34:08;;;;;;;64.07;7.10;;;;;;;;;;5094245;28;20273;-72
2022/04/03 07:36:35;;;;;;;64.60;6.88;;;;;;;;;;5094792;28;20214;-71
2022/04/03 07:39:02;;;;;;;63.25;6.65;;;;;;;;;;5094318;28;20295;-73
2022/04/03 07:41:29;;;;;;;63.10;6.75;;;;;;;;;;5094548;28;20287;-72
2022/04/03 07:43:58;;;;;;;63.25;6.95;;;;;;;;;;5094499;28;20219;-73
2022/04/03 07:46:25;;;;;;;63.65;7.95;;;;;;;;;;5094016;28;20240;-72
2022/04/03 07:48:52;;;;;;;62.55;6.70;;;;;;;;;;5092966;28;20324;-73
2022/04/03 07:51:19;;;;;;;64.15;7.63;;;;;;;;;;5094350;28;20238;-71
2022/04/03 07:53:46;;;;;;;62.40;6.63;;;;;;;;;;5093550;28;20602;-73
2022/04/03 07:56:14;;;;;;;62.65;6.75;;;;;;;;;;5093220;28;20200;-71
2022/04/03 07:58:42;;;;;;;63.00;7.25;;;;;;;;;;5090705;28;20226;-72
2022/04/03 08:01:10;;;;;;;62.80;6.00;;;;;;;;;;5093623;28;20204;-72
2022/04/03 08:03:37;;;;;;;65.13;7.05;;;;;;;;;;5092904;28;20507;-73
2022/04/03 08:06:06;;;;;;;62.25;5.78;;;;;;;;;;5093675;28;20681;-72
2022/04/03 08:08:33;;;;;;;61.53;6.30;;;;;;;;;;5092739;28;20259;-73
2022/04/03 08:11:00;;;;;;;63.35;6.47;;;;;;;;;;5093124;28;20200;-72
2022/04/03 08:13:27;;;;;;;65.93;7.28;;;;;;;;;;5092565;28;20228;-72
2022/04/03 08:15:54;;;;;;;64.47;6.90;;;;;;;;;;5093063;28;20200;-73
2022/04/03 08:18:24;;;;;;;63.50;6.70;;;;;;;;;;5092815;28;20332;-70
2022/04/03 08:20:52;;;;;;;64.57;7.30;;;;;;;;;;5093230;28;20236;-73
2022/04/03 08:23:19;;;;;;;60.80;6.07;;;;;;;;;;5092799;28;20227;-73
2022/04/03 08:25:46;;;;;;;63.33;6.57;;;;;;;;;;5092841;28;20269;-72
2022/04/03 08:28:15;;;;;;;63.78;5.90;;;;;;;;;;5091391;28;20620;-72
2022/04/03 08:30:43;;;;;;;65.88;7.30;;;;;;;;;;5089396;28;20658;-71
2022/04/03 08:33:10;;;;;;;63.08;7.20;;;;;;;;;;5093006;28;20291;-72
2022/04/03 08:35:40;;;;;;;64.68;6.15;;;;;;;;;;5093082;28;20689;-72
2022/04/03 08:38:07;;;;;;;62.58;5.95;;;;;;;;;;5091755;28;20228;-71
2022/04/03 08:40:35;;;;;;;61.95;6.57;;;;;;;;;;5093229;28;20295;-71
2022/04/03 08:43:03;;;;;;;62.13;6.28;;;;;;;;;;5092188;28;20206;-72
2022/04/03 08:45:30;;;;;;;61.33;6.03;;;;;;;;;;5092727;28;20324;-71
2022/04/03 08:47:58;;;;;;;63.03;6.70;;;;;;;;;;5091773;28;20228;-71
2022/04/03 08:50:26;;;;;;;62.20;6.28;;;;;;;;;;5092633;28;20688;-71
2022/04/03 08:52:56;;;;;;;64.25;5.07;;;;;;;;;;5092673;28;20699;-71
2022/04/03 08:55:23;;;;;;;62.00;6.30;;;;;;;;;;5092559;28;20234;-71
2022/04/03 08:57:50;;;;;;;60.40;5.20;;;;;;;;;;5092044;28;20377;-71
2022/04/03 09:00:18;;;;;;;60.47;5.00;;;;;;;;;;5088084;28;20320;-71
2022/04/03 09:02:46;;;;;;;61.40;5.75;;;;;;;;;;5092141;28;20208;-71
2022/04/03 09:05:14;;;;;;;62.83;6.00;;;;;;;;;;5092273;28;20669;-71
2022/04/03 09:07:41;;;;;;;63.95;6.70;;;;;;;;;;5091673;28;20230;-71
2022/04/03 09:10:12;;;;;;;62.45;6.10;;;;;;;;;;5092040;28;20300;-71
2022/04/03 09:12:44;;;;;;;63.53;6.00;;;;;;;;;;5091786;28;20232;-70
2022/04/03 09:15:14;;;;;;;61.15;6.05;;;;;;;;;;5092094;28;20224;-69
2022/04/03 09:17:44;;;;;;;60.83;5.80;;;;;;;;;;5091544;28;20312;-71
2022/04/03 09:20:12;;;;;;;61.22;5.32;;;;;;;;;;5091596;28;20211;-70
2022/04/03 09:22:41;;;;;;;60.50;5.18;;;;;;;;;;5091641;28;20261;-70
2022/04/03 09:25:09;;;;;;;60.05;4.97;;;;;;;;;;5092182;28;20208;-70
2022/04/03 09:27:46;;;;;;;60.60;5.18;;;;;;;;;;5091706;28;20230;-71
2022/04/03 09:30:14;;;;;;;60.80;4.85;;;;;;;;;;5092450;28;20204;-71
2022/04/03 09:32:46;;;;;;;63.75;5.40;;;;;;;;;;5087786;28;20288;-70
2022/04/03 09:35:13;;;;;;;64.93;6.15;;;;;;;;;;5091605;28;20295;-70
2022/04/03 09:37:40;;;;;;;60.30;5.40;;;;;;;;;;5090949;28;20226;-70
2022/04/03 09:40:08;;;;;;;62.65;5.45;;;;;;;;;;5091359;28;20668;-70
2022/04/03 09:42:35;;;;;;;60.70;4.63;;;;;;;;;;5091375;28;20289;-70
2022/04/03 09:45:04;;;;;;;60.85;5.05;;;;;;;;;;5091680;28;20200;-69
2022/04/03 09:47:33;;;;;;;61.20;5.10;;;;;;;;;;5090772;28;20229;-70
2022/04/03 09:50:01;;;;;;;62.38;5.97;;;;;;;;;;5091846;28;20303;-69
2022/04/03 09:52:35;;;;;;;62.22;5.68;;;;;;;;;;5091832;28;20691;-70
2022/04/03 09:55:02;;;;;;;62.33;6.15;;;;;;;;;;5091990;28;20771;-70
2022/04/03 09:57:29;;;;;;;63.03;5.85;;;;;;;;;;5090507;28;20220;-70
2022/04/03 09:59:57;;;;;;;65.95;6.93;;;;;;;;;;5091606;28;20294;-70
2022/04/03 10:02:25;;;;;;;63.55;7.20;;;;;;;;;;5090586;28;20212;-70
2022/04/03 10:04:53;;;;;;;65.80;6.60;;;;;;;;;;5088672;28;20291;-70
2022/04/03 10:07:22;;;;;;;60.97;6.03;;;;;;;;;;5090889;28;20603;-70
2022/04/03 10:09:51;;;;;;;61.78;6.03;;;;;;;;;;5091645;28;20271;-70
2022/04/03 10:12:19;;;;;;;63.00;5.50;;;;;;;;;;5091561;28;20680;-70
2022/04/03 10:14:46;;;;;;;62.20;6.60;;;;;;;;;;5091421;28;20724;-70
2022/04/03 10:17:14;;;;;;;66.65;5.60;;;;;;;;;;5091078;28;20234;-69
2022/04/03 10:19:42;;;;;;;63.33;5.35;;;;;;;;;;5091518;28;20604;-69
2022/04/03 10:22:12;;;;;;;60.88;5.40;;;;;;;;;;5091175;28;20218;-68
2022/04/03 10:24:40;;;;;;;61.70;5.28;;;;;;;;;;5091169;28;20273;-70
2022/04/03 10:27:09;;;;;;;61.92;5.47;;;;;;;;;;5090583;28;20661;-67
2022/04/03 10:29:38;;;;;;;59.05;3.95;;;;;;;;;;5091477;28;20211;-68
2022/04/03 10:32:06;;;;;;;64.22;4.43;;;;;;;;;;5092939;28;20291;-68
2022/04/03 10:34:45;;;;;;;59.88;4.20;;;;;;;;;;5095218;28;20224;-69
2022/04/03 10:37:25;;;;;;;59.75;4.40;;;;;;;;;;5091465;28;20230;-69
2022/04/03 10:39:53;;;;;;;59.72;3.95;;;;;;;;;;5095014;28;20298;-69
2022/04/03 10:42:25;;;;;;;60.28;3.97;;;;;;;;;;5094970;28;20273;-69
2022/04/03 10:45:07;;;;;;;60.03;4.55;;;;;;;;;;5094987;28;20257;-68
2022/04/03 10:47:34;;;;;;;59.97;4.47;;;;;;;;;;5094353;28;20319;-69
2022/04/03 10:50:02;;;;;;;59.92;4.80;;;;;;;;;;5094954;28;20672;-69
2022/04/03 10:52:44;;;;;;;61.05;5.28;;;;;;;;;;5095211;28;20208;-69
2022/04/03 10:55:15;;;;;;;60.60;4.97;;;;;;;;;;5094681;28;20315;-70
2022/04/03 10:57:43;;;;;;;62.00;4.40;;;;;;;;;;5094611;28;20221;-69
2022/04/03 11:00:28;;;;;;;61.90;5.40;;;;;;;;;;5094900;28;20449;-70
2022/04/03 11:03:01;;;;;;;60.17;4.47;;;;;;;;;;5094739;28;20478;-70
2022/04/03 11:05:43;;;;;;;60.20;4.50;;;;;;;;;;5094633;28;20533;-70
2022/04/03 11:08:18;;;;;;;60.70;4.83;;;;;;;;;;5091584;28;20468;-70
2022/04/03 11:10:48;;;;;;;62.77;4.43;;;;;;;;;;5094392;28;20451;-69
2022/04/03 11:13:15;;;;;;;60.33;4.40;;;;;;;;;;5094525;28;20455;-69
2022/04/03 11:15:46;;;;;;;60.88;4.82;;;;;;;;;;5095142;28;20865;-70
2022/04/03 11:18:28;;;;;;;61.00;4.90;;;;;;;;;;5093902;28;20225;-69
2022/04/03 11:21:08;;;;;;;60.47;4.90;;;;;;;;;;5094522;28;20290;-70
2022/04/03 11:23:37;;;;;;;60.90;5.13;;;;;;;;;;5094375;28;20457;-70
2022/04/03 11:26:05;;;;;;;66.50;4.80;;;;;;;;;;5093984;28;20441;-70
2022/04/03 11:28:34;;;;;;;61.20;4.37;;;;;;;;;;5093597;28;20474;-70
2022/04/03 11:31:01;;;;;;;61.90;4.80;;;;;;;;;;5094487;28;20556;-69
2022/04/03 11:33:29;;;;;;;61.67;4.30;;;;;;;;;;5094189;28;20444;-70
2022/04/03 11:35:56;;;;;;;59.57;4.23;;;;;;;;;;5094628;28;20482;-70
2022/04/03 11:38:23;;;;;;;60.10;4.60;;;;;;;;;;5093604;28;20832;-69
2022/04/03 11:40:51;;;;;;;60.70;4.30;;;;;;;;;;5090842;28;20584;-70
2022/04/03 11:43:20;;;;;;;60.27;4.90;;;;;;;;;;5093612;28;20876;-70
2022/04/03 11:45:55;;;;;;;60.67;5.40;;;;;;;;;;5093827;28;20453;-70
2022/04/03 11:48:23;;;;;;;62.20;4.80;;;;;;;;;;5092612;28;20469;-69
2022/04/03 11:50:51;;;;;;;61.87;4.20;;;;;;;;;;5094283;28;20801;-70
2022/04/03 11:53:19;;;;;;;59.90;4.43;;;;;;;;;;5094119;28;20449;-69
2022/04/03 11:55:46;;;;;;;60.47;5.40;;;;;;;;;;5093808;28;20477;-69
2022/04/03 11:58:13;;;;;;;59.60;3.90;;;;;;;;;;5093253;28;20554;-71
2022/04/03 12:00:47;;;;;;;59.57;4.77;;;;;;;;;;5094100;28;20452;-70
2022/04/03 12:03:14;;;;;;;59.93;4.63;;;;;;;;;;5093892;28;20481;-71
2022/04/03 12:05:42;;;;;;;60.10;4.40;;;;;;;;;;5093308;28;20446;-69
2022/04/03 12:08:09;;;;;;;59.67;4.50;;;;;;;;;;5092611;28;20473;-69
2022/04/03 12:10:36;;;;;;;60.00;4.57;;;;;;;;;;5092592;28;20484;-68
2022/04/03 12:13:07;;;;;;;62.47;4.90;;;;;;;;;;5089986;28;20453;-70
2022/04/03 12:15:34;;;;;;;60.27;4.70;;;;;;;;;;5093395;28;21041;-70
2022/04/03 12:18:03;;;;;;;60.50;4.50;;;;;;;;;;5092959;28;20488;-69
2022/04/03 12:20:34;;;;;;;61.23;4.40;;;;;;;;;;5093634;28;20456;-69
2022/04/03 12:23:02;;;;;;;61.90;5.13;;;;;;;;;;5093380;28;20452;-70
2022/04/03 12:25:31;;;;;;;60.72;4.80;;;;;;;;;;5092916;28;20202;-70
2022/04/03 12:27:59;;;;;;;61.38;4.55;;;;;;;;;;5092028;28;20317;-70
2022/04/03 12:30:26;;;;;;;62.65;4.68;;;;;;;;;;5093397;28;20202;-70
2022/04/03 12:32:53;;;;;;;63.97;5.83;;;;;;;;;;5092979;28;20688;-73
2022/04/03 12:35:23;;;;;;;60.08;4.80;;;;;;;;;;5093295;28;20475;-69
2022/04/03 12:37:51;;;;;;;61.13;5.22;;;;;;;;;;5092310;28;20227;-70
2022/04/03 12:40:18;;;;;;;62.27;4.40;;;;;;;;;;5092942;28;20653;-70
2022/04/03 12:42:46;;;;;;;60.97;4.53;;;;;;;;;;5088339;28;20455;-69
2022/04/03 12:45:17;;;;;;;59.40;4.23;;;;;;;;;;5092424;28;20937;-69
2022/04/03 12:47:44;;;;;;;62.90;4.40;;;;;;;;;;5091613;28;20541;-70
2022/04/03 12:50:13;;;;;;;59.63;4.73;;;;;;;;;;5092427;28;20508;-70
2022/04/03 12:52:43;;;;;;;60.07;4.43;;;;;;;;;;5092756;28;20442;-70
2022/04/03 12:55:29;;;;;;;61.20;4.40;;;;;;;;;;5091659;28;20576;-69
2022/04/03 12:58:25;;;;;;;60.10;4.60;;;;;;;;;;5092159;28;20474;-70
2022/04/03 13:00:54;;;;;;;60.60;4.50;;;;;;;;;;5092607;28;20462;-70
2022/04/03 13:03:24;;;;;;;60.10;5.00;;;;;;;;;;5092287;28;20450;-70
2022/04/03 13:05:54;;;;;;;60.87;4.70;;;;;;;;;;5092577;28;20529;-68
2022/04/03 13:08:23;;;;;;;60.03;5.10;;;;;;;;;;5091587;28;20889;-70
2022/04/03 13:10:53;;;;;;;61.47;5.30;;;;;;;;;;5092453;28;20457;-70
2022/04/03 13:13:21;;;;;;;59.80;4.43;;;;;;;;;;5091406;28;20445;-69
2022/04/03 13:15:48;;;;;;;59.37;4.17;;;;;;;;;;5089578;28;20491;-69
2022/04/03 13:18:16;;;;;;;59.43;4.27;;;;;;;;;;5091511;28;20469;-68
2022/04/03 13:20:48;;;;;;;64.17;4.50;;;;;;;;;;5092212;28;20452;-70
2022/04/03 13:23:15;;;;;;;60.20;4.30;;;;;;;;;;5092313;28;20453;-71
2022/04/03 13:25:44;;;;;;;59.80;4.30;;;;;;;;;;5091713;28;20516;-70
2022/04/03 13:28:11;;;;;;;60.20;3.97;;;;;;;;;;5090944;28;21011;-70
2022/04/03 13:30:38;;;;;;;61.40;4.60;;;;;;;;;;5092052;28;20504;-71
2022/04/03 13:33:05;;;;;;;59.90;4.20;;;;;;;;;;5092327;28;20548;-70
2022/04/03 13:35:34;;;;;;;60.00;4.30;;;;;;;;;;5092042;28;20512;-71
2022/04/03 13:38:01;;;;;;;60.57;4.33;;;;;;;;;;5091752;28;20941;-71
2022/04/03 13:40:28;;;;;;;59.67;4.07;;;;;;;;;;5092252;28;20444;-71
2022/04/03 13:42:57;;;;;;;58.80;4.10;;;;;;;;;;5091756;28;20454;-71
2022/04/03 13:45:56;;;;;;;59.37;4.00;;;;;;;;;;5092053;28;20442;-72
2022/04/03 13:48:11;;;;;;;60.57;4.60;;;;;;;;;;5087605;28;20530;-72
2022/04/03 13:50:39;;;;;;;61.10;4.70;;;;;;;;;;5091531;28;20672;-72
2022/04/03 13:53:06;;;;;;;63.83;4.23;;;;;;;;;;5091871;28;20454;-72
2022/04/03 13:55:33;;;;;;;60.80;4.37;;;;;;;;;;5091689;28;20564;-71
2022/04/03 13:58:02;;;;;;;62.97;5.23;;;;;;;;;;5091168;28;20827;-72
2022/04/03 14:00:29;;;;;;;59.93;4.63;;;;;;;;;;5092158;28;20852;-70
2022/04/03 14:02:56;;;;;;;59.67;4.40;;;;;;;;;;5091491;28;20543;-72
2022/04/03 14:05:23;;;;;;;60.97;4.80;;;;;;;;;;5092107;28;20439;-71
2022/04/03 14:07:51;;;;;;;59.60;4.03;;;;;;;;;;5094840;28;20466;-72
2022/04/03 14:10:18;;;;;;;60.00;4.50;;;;;;;;;;5095940;28;20564;-71
2022/04/03 14:12:45;;;;;;;61.27;4.63;;;;;;;;;;5095996;28;20449;-72
2022/04/03 14:15:13;;;;;;;60.00;4.30;;;;;;;;;;5095915;28;20480;-71
2022/04/03 14:17:41;;;;;;;61.27;4.80;;;;;;;;;;5095015;28;20971;-72
2022/04/03 14:20:09;;;;;;;59.97;4.83;;;;;;;;;;5077034;28;20529;-71
2022/04/03 14:22:36;;;;;;;60.07;4.63;;;;;;;;;;5075019;28;20443;-71
2022/04/03 14:25:05;;;;;;;61.63;4.93;;;;;;;;;;5075314;28;20451;-71
2022/04/03 14:27:32;;;;;;;61.00;4.80;;;;;;;;;;5074561;28;20502;-71
2022/04/03 14:30:03;;;;;;;61.57;4.87;;;;;;;;;;5074705;28;20446;-72